sensor_id;sensor_type;location;lat;lon;timestamp;P1;durP1;ratioP1;P2;durP2;ratioP2
553;SDS011;59;48.778;9.156;2023-02-12T00:01:32;29.50;;;19.57;;
553;SDS011;59;48.778;9.156;2023-02-12T00:03:58;28.40;;;18.80;;
553;SDS011;59;48.778;9.156;2023-02-12T00:06:24;32.57;;;20.60;;
553;SDS011;59;48.778;9.156;2023-02-12T00:08:52;31.77;;;21.17;;
553;SDS011;59;48.778;9.156;2023-02-12T00:11:20;32.07;;;20.03;;
553;SDS011;59;48.778;9.156;2023-02-12T00:13:50;33.80;;;21.87;;
553;SDS011;59;48.778;9.156;2023-02-12T00:16:17;35.70;;;21.73;;
553;SDS011;59;48.778;9.156;2023-02-12T00:18:44;31.07;;;20.87;;
553;SDS011;59;48.778;9.156;2023-02-12T00:21:11;34.00;;;21.83;;
553;SDS011;59;48.778;9.156;2023-02-12T00:23:38;34.37;;;21.60;;
553;SDS011;59;48.778;9.156;2023-02-12T00:26:08;36.87;;;22.47;;
553;SDS011;59;48.778;9.156;2023-02-12T00:28:36;33.73;;;22.30;;
553;SDS011;59;48.778;9.156;2023-02-12T00:31:13;37.20;;;23.50;;
553;SDS011;59;48.778;9.156;2023-02-12T00:33:40;34.40;;;22.43;;
553;SDS011;59;48.778;9.156;2023-02-12T00:36:06;36.57;;;22.40;;
553;SDS011;59;48.778;9.156;2023-02-12T00:38:33;32.70;;;20.80;;
553;SDS011;59;48.778;9.156;2023-02-12T00:40:59;32.23;;;21.40;;
553;SDS011;59;48.778;9.156;2023-02-12T00:43:24;31.17;;;20.37;;
553;SDS011;59;48.778;9.156;2023-02-12T00:45:50;34.40;;;22.50;;
553;SDS011;59;48.778;9.156;2023-02-12T00:48:16;32.40;;;21.57;;
553;SDS011;59;48.778;9.156;2023-02-12T00:50:45;32.20;;;22.07;;
553;SDS011;59;48.778;9.156;2023-02-12T00:53:12;34.23;;;23.10;;
553;SDS011;59;48.778;9.156;2023-02-12T00:55:38;34.07;;;21.80;;
553;SDS011;59;48.778;9.156;2023-02-12T00:58:04;35.93;;;22.67;;
553;SDS011;59;48.778;9.156;2023-02-12T01:00:30;33.87;;;21.53;;
553;SDS011;59;48.778;9.156;2023-02-12T01:02:55;31.70;;;19.80;;
553;SDS011;59;48.778;9.156;2023-02-12T01:05:21;30.50;;;20.20;;
553;SDS011;59;48.778;9.156;2023-02-12T01:07:51;30.10;;;19.60;;
553;SDS011;59;48.778;9.156;2023-02-12T01:10:17;29.73;;;20.53;;
553;SDS011;59;48.778;9.156;2023-02-12T01:12:44;30.20;;;19.93;;
553;SDS011;59;48.778;9.156;2023-02-12T01:15:11;31.13;;;20.67;;
553;SDS011;59;48.778;9.156;2023-02-12T01:17:37;31.70;;;21.97;;
553;SDS011;59;48.778;9.156;2023-02-12T01:20:04;38.23;;;23.13;;
553;SDS011;59;48.778;9.156;2023-02-12T01:22:32;39.80;;;25.17;;
553;SDS011;59;48.778;9.156;2023-02-12T01:24:58;38.70;;;23.43;;
553;SDS011;59;48.778;9.156;2023-02-12T01:27:24;41.03;;;25.37;;
553;SDS011;59;48.778;9.156;2023-02-12T01:29:50;41.43;;;24.37;;
553;SDS011;59;48.778;9.156;2023-02-12T01:32:15;41.00;;;25.43;;
553;SDS011;59;48.778;9.156;2023-02-12T01:34:41;36.90;;;23.47;;
553;SDS011;59;48.778;9.156;2023-02-12T01:37:07;34.60;;;22.93;;
553;SDS011;59;48.778;9.156;2023-02-12T01:39:33;35.93;;;23.13;;
553;SDS011;59;48.778;9.156;2023-02-12T01:41:59;36.80;;;22.13;;
553;SDS011;59;48.778;9.156;2023-02-12T01:44:27;34.90;;;21.80;;
553;SDS011;59;48.778;9.156;2023-02-12T01:46:55;37.53;;;22.77;;
553;SDS011;59;48.778;9.156;2023-02-12T01:52:02;34.50;;;21.77;;
553;SDS011;59;48.778;9.156;2023-02-12T01:54:31;33.93;;;21.13;;
553;SDS011;59;48.778;9.156;2023-02-12T01:56:59;33.60;;;22.30;;
553;SDS011;59;48.778;9.156;2023-02-12T01:59:26;32.20;;;20.80;;
553;SDS011;59;48.778;9.156;2023-02-12T02:01:52;35.00;;;22.60;;
553;SDS011;59;48.778;9.156;2023-02-12T02:04:18;33.10;;;21.83;;
553;SDS011;59;48.778;9.156;2023-02-12T02:06:49;36.53;;;22.87;;
553;SDS011;59;48.778;9.156;2023-02-12T02:09:26;32.53;;;21.77;;
553;SDS011;59;48.778;9.156;2023-02-12T02:11:53;35.47;;;22.53;;
553;SDS011;59;48.778;9.156;2023-02-12T02:14:37;32.43;;;21.10;;
553;SDS011;59;48.778;9.156;2023-02-12T02:25:39;35.27;;;21.90;;
553;SDS011;59;48.778;9.156;2023-02-12T02:36:49;34.97;;;22.67;;
553;SDS011;59;48.778;9.156;2023-02-12T02:42:16;34.10;;;22.40;;
553;SDS011;59;48.778;9.156;2023-02-12T02:45:02;35.30;;;23.47;;
553;SDS011;59;48.778;9.156;2023-02-12T02:50:15;35.70;;;23.70;;
553;SDS011;59;48.778;9.156;2023-02-12T02:52:44;35.67;;;23.20;;
553;SDS011;59;48.778;9.156;2023-02-12T02:55:12;37.40;;;23.50;;
553;SDS011;59;48.778;9.156;2023-02-12T02:57:43;35.33;;;23.00;;
553;SDS011;59;48.778;9.156;2023-02-12T03:00:19;33.60;;;22.70;;
553;SDS011;59;48.778;9.156;2023-02-12T03:02:53;37.00;;;23.17;;
553;SDS011;59;48.778;9.156;2023-02-12T03:05:30;38.70;;;23.60;;
553;SDS011;59;48.778;9.156;2023-02-12T03:08:05;42.03;;;25.63;;
553;SDS011;59;48.778;9.156;2023-02-12T03:10:35;36.43;;;24.57;;
553;SDS011;59;48.778;9.156;2023-02-12T03:13:13;35.43;;;24.57;;
553;SDS011;59;48.778;9.156;2023-02-12T03:16:22;34.80;;;22.80;;
553;SDS011;59;48.778;9.156;2023-02-12T03:19:05;34.77;;;23.37;;
553;SDS011;59;48.778;9.156;2023-02-12T03:24:32;38.70;;;23.87;;
553;SDS011;59;48.778;9.156;2023-02-12T03:27:09;39.03;;;24.50;;
553;SDS011;59;48.778;9.156;2023-02-12T03:29:43;35.57;;;22.40;;
553;SDS011;59;48.778;9.156;2023-02-12T03:34:50;40.93;;;25.43;;
553;SDS011;59;48.778;9.156;2023-02-12T03:39:58;40.40;;;25.63;;
553;SDS011;59;48.778;9.156;2023-02-12T03:45:07;39.53;;;25.83;;
553;SDS011;59;48.778;9.156;2023-02-12T03:47:37;40.07;;;26.33;;
553;SDS011;59;48.778;9.156;2023-02-12T03:52:52;36.87;;;25.20;;
553;SDS011;59;48.778;9.156;2023-02-12T03:55:18;36.53;;;25.40;;
553;SDS011;59;48.778;9.156;2023-02-12T03:57:51;36.37;;;24.70;;
553;SDS011;59;48.778;9.156;2023-02-12T04:00:21;37.00;;;24.80;;
553;SDS011;59;48.778;9.156;2023-02-12T04:02:48;35.63;;;24.60;;
553;SDS011;59;48.778;9.156;2023-02-12T04:05:17;39.37;;;25.57;;
553;SDS011;59;48.778;9.156;2023-02-12T04:07:48;38.93;;;25.03;;
553;SDS011;59;48.778;9.156;2023-02-12T04:10:14;37.20;;;24.70;;
553;SDS011;59;48.778;9.156;2023-02-12T04:17:42;36.27;;;24.50;;
553;SDS011;59;48.778;9.156;2023-02-12T04:20:27;39.70;;;24.43;;
553;SDS011;59;48.778;9.156;2023-02-12T04:25:51;33.90;;;22.67;;
553;SDS011;59;48.778;9.156;2023-02-12T04:28:24;34.67;;;22.40;;
553;SDS011;59;48.778;9.156;2023-02-12T04:31:22;33.20;;;21.60;;
553;SDS011;59;48.778;9.156;2023-02-12T04:33:53;31.80;;;21.10;;
553;SDS011;59;48.778;9.156;2023-02-12T04:36:26;32.97;;;21.20;;
553;SDS011;59;48.778;9.156;2023-02-12T04:39:00;34.27;;;21.33;;
553;SDS011;59;48.778;9.156;2023-02-12T04:41:27;36.13;;;21.80;;
553;SDS011;59;48.778;9.156;2023-02-12T04:43:55;31.93;;;22.40;;
553;SDS011;59;48.778;9.156;2023-02-12T04:46:20;33.50;;;22.17;;
553;SDS011;59;48.778;9.156;2023-02-12T04:48:56;35.80;;;23.63;;
553;SDS011;59;48.778;9.156;2023-02-12T04:51:22;39.97;;;25.70;;
553;SDS011;59;48.778;9.156;2023-02-12T04:53:48;39.77;;;25.47;;
553;SDS011;59;48.778;9.156;2023-02-12T04:56:14;40.13;;;26.07;;
553;SDS011;59;48.778;9.156;2023-02-12T04:58:40;40.17;;;27.43;;
553;SDS011;59;48.778;9.156;2023-02-12T05:01:06;37.63;;;25.63;;
553;SDS011;59;48.778;9.156;2023-02-12T05:03:33;40.13;;;24.67;;
553;SDS011;59;48.778;9.156;2023-02-12T05:06:05;36.50;;;24.40;;
553;SDS011;59;48.778;9.156;2023-02-12T05:08:32;39.20;;;26.13;;
553;SDS011;59;48.778;9.156;2023-02-12T05:11:05;44.20;;;27.17;;
553;SDS011;59;48.778;9.156;2023-02-12T05:13:32;41.80;;;26.67;;
553;SDS011;59;48.778;9.156;2023-02-12T05:15:57;40.40;;;26.80;;
553;SDS011;59;48.778;9.156;2023-02-12T05:18:23;40.53;;;26.67;;
553;SDS011;59;48.778;9.156;2023-02-12T05:20:56;42.47;;;27.27;;
553;SDS011;59;48.778;9.156;2023-02-12T05:23:24;41.53;;;26.73;;
553;SDS011;59;48.778;9.156;2023-02-12T05:25:51;41.50;;;27.70;;
553;SDS011;59;48.778;9.156;2023-02-12T05:28:17;39.93;;;25.97;;
553;SDS011;59;48.778;9.156;2023-02-12T05:30:42;42.00;;;26.77;;
553;SDS011;59;48.778;9.156;2023-02-12T05:33:08;38.97;;;25.90;;
553;SDS011;59;48.778;9.156;2023-02-12T05:35:34;42.67;;;27.13;;
553;SDS011;59;48.778;9.156;2023-02-12T05:38:00;43.60;;;26.10;;
553;SDS011;59;48.778;9.156;2023-02-12T05:40:25;40.90;;;27.13;;
553;SDS011;59;48.778;9.156;2023-02-12T05:42:51;38.77;;;25.73;;
553;SDS011;59;48.778;9.156;2023-02-12T05:45:17;42.17;;;27.60;;
553;SDS011;59;48.778;9.156;2023-02-12T05:47:42;39.00;;;25.87;;
553;SDS011;59;48.778;9.156;2023-02-12T05:50:08;40.60;;;26.23;;
553;SDS011;59;48.778;9.156;2023-02-12T05:52:34;41.80;;;27.10;;
553;SDS011;59;48.778;9.156;2023-02-12T05:55:00;37.63;;;26.00;;
553;SDS011;59;48.778;9.156;2023-02-12T05:57:26;40.43;;;27.63;;
553;SDS011;59;48.778;9.156;2023-02-12T05:59:51;42.40;;;26.90;;
553;SDS011;59;48.778;9.156;2023-02-12T06:02:17;40.97;;;27.20;;
553;SDS011;59;48.778;9.156;2023-02-12T06:04:43;39.43;;;26.57;;
553;SDS011;59;48.778;9.156;2023-02-12T06:07:08;39.30;;;25.67;;
553;SDS011;59;48.778;9.156;2023-02-12T06:09:34;41.20;;;26.57;;
553;SDS011;59;48.778;9.156;2023-02-12T06:12:00;37.47;;;24.63;;
553;SDS011;59;48.778;9.156;2023-02-12T06:14:26;38.00;;;24.97;;
553;SDS011;59;48.778;9.156;2023-02-12T06:16:51;38.20;;;25.63;;
553;SDS011;59;48.778;9.156;2023-02-12T06:19:18;40.63;;;25.80;;
553;SDS011;59;48.778;9.156;2023-02-12T06:21:44;38.97;;;24.60;;
553;SDS011;59;48.778;9.156;2023-02-12T06:24:10;40.53;;;25.67;;
553;SDS011;59;48.778;9.156;2023-02-12T06:26:36;37.47;;;24.60;;
553;SDS011;59;48.778;9.156;2023-02-12T06:29:02;42.37;;;26.27;;
553;SDS011;59;48.778;9.156;2023-02-12T06:31:29;38.87;;;24.50;;
553;SDS011;59;48.778;9.156;2023-02-12T06:33:57;40.10;;;26.00;;
553;SDS011;59;48.778;9.156;2023-02-12T06:36:25;37.87;;;25.90;;
553;SDS011;59;48.778;9.156;2023-02-12T06:38:51;42.20;;;26.10;;
553;SDS011;59;48.778;9.156;2023-02-12T06:41:17;42.10;;;27.00;;
553;SDS011;59;48.778;9.156;2023-02-12T06:43:43;39.70;;;26.20;;
553;SDS011;59;48.778;9.156;2023-02-12T06:46:09;40.07;;;27.20;;
553;SDS011;59;48.778;9.156;2023-02-12T06:48:35;41.30;;;27.47;;
553;SDS011;59;48.778;9.156;2023-02-12T06:51:05;37.83;;;25.57;;
553;SDS011;59;48.778;9.156;2023-02-12T06:53:35;41.03;;;26.63;;
553;SDS011;59;48.778;9.156;2023-02-12T06:56:02;38.37;;;25.37;;
553;SDS011;59;48.778;9.156;2023-02-12T06:58:29;39.90;;;26.30;;
553;SDS011;59;48.778;9.156;2023-02-12T07:00:54;40.77;;;27.03;;
553;SDS011;59;48.778;9.156;2023-02-12T07:03:20;39.80;;;26.50;;
553;SDS011;59;48.778;9.156;2023-02-12T07:05:46;39.87;;;26.10;;
553;SDS011;59;48.778;9.156;2023-02-12T07:08:12;43.57;;;29.33;;
553;SDS011;59;48.778;9.156;2023-02-12T07:10:39;41.40;;;27.00;;
553;SDS011;59;48.778;9.156;2023-02-12T07:13:04;40.70;;;26.20;;
553;SDS011;59;48.778;9.156;2023-02-12T07:15:30;42.10;;;27.17;;
553;SDS011;59;48.778;9.156;2023-02-12T07:17:56;37.80;;;25.17;;
553;SDS011;59;48.778;9.156;2023-02-12T07:20:21;38.90;;;25.60;;
553;SDS011;59;48.778;9.156;2023-02-12T07:22:47;39.30;;;26.80;;
553;SDS011;59;48.778;9.156;2023-02-12T07:25:13;36.97;;;24.90;;
553;SDS011;59;48.778;9.156;2023-02-12T07:27:38;39.33;;;25.50;;
553;SDS011;59;48.778;9.156;2023-02-12T07:30:05;36.50;;;23.80;;
553;SDS011;59;48.778;9.156;2023-02-12T07:32:32;36.67;;;24.80;;
553;SDS011;59;48.778;9.156;2023-02-12T07:34:58;39.40;;;25.53;;
553;SDS011;59;48.778;9.156;2023-02-12T07:37:24;38.23;;;24.83;;
553;SDS011;59;48.778;9.156;2023-02-12T07:39:49;37.20;;;25.53;;
553;SDS011;59;48.778;9.156;2023-02-12T07:42:15;35.20;;;25.33;;
553;SDS011;59;48.778;9.156;2023-02-12T07:44:42;38.80;;;26.10;;
553;SDS011;59;48.778;9.156;2023-02-12T07:47:08;39.00;;;25.30;;
553;SDS011;59;48.778;9.156;2023-02-12T07:49:34;35.47;;;23.67;;
553;SDS011;59;48.778;9.156;2023-02-12T07:52:00;35.67;;;24.97;;
553;SDS011;59;48.778;9.156;2023-02-12T07:54:25;38.93;;;25.87;;
553;SDS011;59;48.778;9.156;2023-02-12T07:56:51;41.30;;;26.47;;
553;SDS011;59;48.778;9.156;2023-02-12T07:59:17;36.20;;;24.87;;
553;SDS011;59;48.778;9.156;2023-02-12T08:01:47;40.33;;;27.20;;
553;SDS011;59;48.778;9.156;2023-02-12T08:04:16;41.90;;;27.33;;
553;SDS011;59;48.778;9.156;2023-02-12T08:06:44;39.30;;;25.50;;
553;SDS011;59;48.778;9.156;2023-02-12T08:09:13;39.27;;;26.00;;
553;SDS011;59;48.778;9.156;2023-02-12T08:11:40;44.20;;;27.60;;
553;SDS011;59;48.778;9.156;2023-02-12T08:14:07;38.93;;;25.60;;
553;SDS011;59;48.778;9.156;2023-02-12T08:16:35;37.37;;;26.17;;
553;SDS011;59;48.778;9.156;2023-02-12T08:19:02;39.60;;;26.07;;
553;SDS011;59;48.778;9.156;2023-02-12T08:21:28;39.10;;;26.63;;
553;SDS011;59;48.778;9.156;2023-02-12T08:23:54;41.53;;;27.57;;
553;SDS011;59;48.778;9.156;2023-02-12T08:26:22;47.17;;;30.60;;
553;SDS011;59;48.778;9.156;2023-02-12T08:28:56;47.77;;;30.50;;
553;SDS011;59;48.778;9.156;2023-02-12T08:31:23;47.60;;;31.33;;
553;SDS011;59;48.778;9.156;2023-02-12T08:33:50;41.87;;;27.87;;
553;SDS011;59;48.778;9.156;2023-02-12T08:36:19;44.33;;;29.13;;
553;SDS011;59;48.778;9.156;2023-02-12T08:38:46;44.87;;;28.47;;
553;SDS011;59;48.778;9.156;2023-02-12T08:41:13;41.57;;;28.27;;
553;SDS011;59;48.778;9.156;2023-02-12T08:43:44;39.13;;;26.20;;
553;SDS011;59;48.778;9.156;2023-02-12T08:48:36;41.53;;;27.37;;
553;SDS011;59;48.778;9.156;2023-02-12T08:51:10;42.93;;;27.17;;
553;SDS011;59;48.778;9.156;2023-02-12T08:53:40;41.07;;;27.37;;
553;SDS011;59;48.778;9.156;2023-02-12T08:56:07;40.43;;;27.23;;
553;SDS011;59;48.778;9.156;2023-02-12T08:58:34;44.60;;;28.90;;
553;SDS011;59;48.778;9.156;2023-02-12T09:01:00;38.20;;;25.43;;
553;SDS011;59;48.778;9.156;2023-02-12T09:03:26;41.23;;;26.50;;
553;SDS011;59;48.778;9.156;2023-02-12T09:05:52;46.50;;;29.23;;
553;SDS011;59;48.778;9.156;2023-02-12T09:08:17;42.00;;;27.70;;
553;SDS011;59;48.778;9.156;2023-02-12T09:10:43;42.90;;;27.53;;
553;SDS011;59;48.778;9.156;2023-02-12T09:13:10;47.17;;;29.90;;
553;SDS011;59;48.778;9.156;2023-02-12T09:15:38;47.60;;;31.87;;
553;SDS011;59;48.778;9.156;2023-02-12T09:18:04;47.00;;;30.23;;
553;SDS011;59;48.778;9.156;2023-02-12T09:20:30;44.80;;;28.43;;
553;SDS011;59;48.778;9.156;2023-02-12T09:22:57;55.37;;;34.63;;
553;SDS011;59;48.778;9.156;2023-02-12T09:25:23;47.33;;;31.47;;
553;SDS011;59;48.778;9.156;2023-02-12T09:27:49;49.30;;;31.10;;
553;SDS011;59;48.778;9.156;2023-02-12T09:30:14;46.90;;;29.43;;
553;SDS011;59;48.778;9.156;2023-02-12T09:32:40;44.00;;;27.70;;
553;SDS011;59;48.778;9.156;2023-02-12T09:35:06;48.00;;;28.53;;
553;SDS011;59;48.778;9.156;2023-02-12T09:37:35;39.70;;;26.17;;
553;SDS011;59;48.778;9.156;2023-02-12T09:40:01;45.90;;;27.20;;
553;SDS011;59;48.778;9.156;2023-02-12T09:42:32;45.87;;;29.50;;
553;SDS011;59;48.778;9.156;2023-02-12T09:48:13;41.80;;;26.80;;
553;SDS011;59;48.778;9.156;2023-02-12T09:53:18;48.90;;;31.00;;
553;SDS011;59;48.778;9.156;2023-02-12T09:55:46;45.70;;;28.80;;
553;SDS011;59;48.778;9.156;2023-02-12T09:58:13;43.60;;;28.03;;
553;SDS011;59;48.778;9.156;2023-02-12T10:00:53;39.20;;;25.90;;
553;SDS011;59;48.778;9.156;2023-02-12T10:03:19;36.70;;;24.33;;
553;SDS011;59;48.778;9.156;2023-02-12T10:05:50;37.33;;;24.30;;
553;SDS011;59;48.778;9.156;2023-02-12T10:11:13;33.60;;;21.40;;
553;SDS011;59;48.778;9.156;2023-02-12T10:25:35;36.93;;;22.13;;
553;SDS011;59;48.778;9.156;2023-02-12T10:28:40;27.87;;;19.20;;
553;SDS011;59;48.778;9.156;2023-02-12T10:31:15;28.70;;;18.43;;
553;SDS011;59;48.778;9.156;2023-02-12T10:33:48;35.63;;;22.93;;
553;SDS011;59;48.778;9.156;2023-02-12T10:36:30;32.57;;;21.43;;
553;SDS011;59;48.778;9.156;2023-02-12T10:42:00;36.80;;;23.40;;
553;SDS011;59;48.778;9.156;2023-02-12T10:44:40;34.53;;;21.30;;
553;SDS011;59;48.778;9.156;2023-02-12T10:47:10;28.70;;;19.10;;
553;SDS011;59;48.778;9.156;2023-02-12T10:49:39;30.67;;;19.27;;
553;SDS011;59;48.778;9.156;2023-02-12T10:52:15;32.90;;;20.90;;
553;SDS011;59;48.778;9.156;2023-02-12T10:55:02;35.60;;;22.73;;
553;SDS011;59;48.778;9.156;2023-02-12T10:57:51;31.57;;;19.70;;
553;SDS011;59;48.778;9.156;2023-02-12T11:05:35;27.90;;;18.17;;
553;SDS011;59;48.778;9.156;2023-02-12T11:08:02;25.40;;;17.70;;
553;SDS011;59;48.778;9.156;2023-02-12T11:10:36;26.50;;;17.10;;
553;SDS011;59;48.778;9.156;2023-02-12T11:13:03;30.13;;;19.30;;
553;SDS011;59;48.778;9.156;2023-02-12T11:15:34;25.93;;;17.53;;
553;SDS011;59;48.778;9.156;2023-02-12T11:18:03;26.20;;;17.13;;
553;SDS011;59;48.778;9.156;2023-02-12T11:22:59;31.60;;;20.40;;
553;SDS011;59;48.778;9.156;2023-02-12T11:25:30;34.90;;;22.93;;
553;SDS011;59;48.778;9.156;2023-02-12T11:33:27;26.67;;;16.77;;
553;SDS011;59;48.778;9.156;2023-02-12T11:36:00;25.47;;;16.23;;
553;SDS011;59;48.778;9.156;2023-02-12T11:38:52;25.07;;;15.30;;
553;SDS011;59;48.778;9.156;2023-02-12T11:41:38;19.73;;;13.53;;
553;SDS011;59;48.778;9.156;2023-02-12T11:44:09;18.47;;;11.53;;
553;SDS011;59;48.778;9.156;2023-02-12T11:47:09;16.63;;;11.07;;
553;SDS011;59;48.778;9.156;2023-02-12T11:49:48;15.20;;;10.40;;
553;SDS011;59;48.778;9.156;2023-02-12T11:52:23;12.93;;;9.37;;
553;SDS011;59;48.778;9.156;2023-02-12T11:54:52;11.33;;;7.80;;
553;SDS011;59;48.778;9.156;2023-02-12T11:57:38;13.13;;;8.10;;
553;SDS011;59;48.778;9.156;2023-02-12T12:00:28;13.03;;;8.87;;
553;SDS011;59;48.778;9.156;2023-02-12T12:02:56;12.37;;;8.77;;
553;SDS011;59;48.778;9.156;2023-02-12T12:05:36;22.27;;;14.07;;
553;SDS011;59;48.778;9.156;2023-02-12T12:08:27;16.60;;;11.00;;
553;SDS011;59;48.778;9.156;2023-02-12T12:11:05;15.60;;;9.40;;
553;SDS011;59;48.778;9.156;2023-02-12T12:19:39;11.23;;;7.43;;
553;SDS011;59;48.778;9.156;2023-02-12T12:25:28;11.63;;;7.43;;
553;SDS011;59;48.778;9.156;2023-02-12T12:28:12;10.40;;;7.27;;
553;SDS011;59;48.778;9.156;2023-02-12T12:33:50;15.03;;;10.07;;
553;SDS011;59;48.778;9.156;2023-02-12T12:39:14;15.40;;;10.30;;
553;SDS011;59;48.778;9.156;2023-02-12T12:42:00;14.33;;;9.00;;
553;SDS011;59;48.778;9.156;2023-02-12T12:47:36;10.80;;;7.67;;
553;SDS011;59;48.778;9.156;2023-02-12T12:52:44;10.70;;;7.87;;
553;SDS011;59;48.778;9.156;2023-02-12T12:58:00;12.67;;;8.60;;
553;SDS011;59;48.778;9.156;2023-02-12T13:00:44;11.43;;;8.03;;
553;SDS011;59;48.778;9.156;2023-02-12T13:27:46;9.30;;;6.60;;
553;SDS011;59;48.778;9.156;2023-02-12T13:32:58;9.00;;;5.97;;
553;SDS011;59;48.778;9.156;2023-02-12T13:35:27;10.80;;;6.67;;
553;SDS011;59;48.778;9.156;2023-02-12T13:37:54;10.97;;;6.80;;
553;SDS011;59;48.778;9.156;2023-02-12T13:40:22;10.60;;;6.90;;
553;SDS011;59;48.778;9.156;2023-02-12T13:54:06;9.37;;;6.13;;
553;SDS011;59;48.778;9.156;2023-02-12T13:56:56;9.37;;;6.63;;
553;SDS011;59;48.778;9.156;2023-02-12T14:01:56;11.10;;;6.77;;
553;SDS011;59;48.778;9.156;2023-02-12T14:07:11;8.00;;;5.53;;
553;SDS011;59;48.778;9.156;2023-02-12T14:09:43;7.30;;;5.37;;
553;SDS011;59;48.778;9.156;2023-02-12T14:14:51;8.40;;;5.90;;
553;SDS011;59;48.778;9.156;2023-02-12T14:40:43;7.03;;;5.10;;
553;SDS011;59;48.778;9.156;2023-02-12T14:43:23;7.43;;;5.17;;
553;SDS011;59;48.778;9.156;2023-02-12T14:45:54;4.97;;;4.10;;
553;SDS011;59;48.778;9.156;2023-02-12T14:48:44;6.37;;;4.03;;
553;SDS011;59;48.778;9.156;2023-02-12T14:51:26;8.00;;;5.23;;
553;SDS011;59;48.778;9.156;2023-02-12T14:54:03;12.37;;;8.10;;
553;SDS011;59;48.778;9.156;2023-02-12T14:56:45;12.60;;;8.23;;
553;SDS011;59;48.778;9.156;2023-02-12T14:59:16;8.93;;;6.17;;
553;SDS011;59;48.778;9.156;2023-02-12T15:01:44;8.00;;;5.63;;
553;SDS011;59;48.778;9.156;2023-02-12T15:04:10;6.87;;;4.90;;
553;SDS011;59;48.778;9.156;2023-02-12T15:06:52;6.17;;;4.07;;
553;SDS011;59;48.778;9.156;2023-02-12T15:09:25;7.07;;;4.13;;
553;SDS011;59;48.778;9.156;2023-02-12T15:12:01;4.40;;;3.50;;
553;SDS011;59;48.778;9.156;2023-02-12T15:14:30;5.90;;;4.00;;
553;SDS011;59;48.778;9.156;2023-02-12T15:17:06;5.03;;;3.60;;
553;SDS011;59;48.778;9.156;2023-02-12T15:24:52;4.03;;;3.00;;
553;SDS011;59;48.778;9.156;2023-02-12T15:27:18;5.00;;;3.67;;
553;SDS011;59;48.778;9.156;2023-02-12T15:29:46;4.30;;;2.93;;
553;SDS011;59;48.778;9.156;2023-02-12T15:32:23;4.73;;;3.47;;
553;SDS011;59;48.778;9.156;2023-02-12T15:34:51;4.03;;;2.93;;
553;SDS011;59;48.778;9.156;2023-02-12T15:37:20;3.67;;;2.90;;
553;SDS011;59;48.778;9.156;2023-02-12T15:39:51;4.80;;;2.93;;
553;SDS011;59;48.778;9.156;2023-02-12T15:42:37;5.93;;;4.07;;
553;SDS011;59;48.778;9.156;2023-02-12T15:47:39;4.00;;;3.20;;
553;SDS011;59;48.778;9.156;2023-02-12T15:50:06;4.77;;;3.30;;
553;SDS011;59;48.778;9.156;2023-02-12T15:52:39;4.13;;;3.13;;
553;SDS011;59;48.778;9.156;2023-02-12T15:55:06;3.83;;;3.17;;
553;SDS011;59;48.778;9.156;2023-02-12T15:57:39;3.80;;;2.80;;
553;SDS011;59;48.778;9.156;2023-02-12T16:00:06;4.00;;;2.67;;
553;SDS011;59;48.778;9.156;2023-02-12T16:02:34;5.33;;;3.73;;
553;SDS011;59;48.778;9.156;2023-02-12T16:05:00;10.23;;;6.27;;
553;SDS011;59;48.778;9.156;2023-02-12T16:07:29;9.37;;;5.90;;
553;SDS011;59;48.778;9.156;2023-02-12T16:09:59;7.70;;;5.20;;
553;SDS011;59;48.778;9.156;2023-02-12T16:12:28;5.10;;;3.77;;
553;SDS011;59;48.778;9.156;2023-02-12T16:14:56;4.70;;;3.23;;
553;SDS011;59;48.778;9.156;2023-02-12T16:22:38;3.50;;;2.97;;
553;SDS011;59;48.778;9.156;2023-02-12T16:25:25;3.37;;;2.57;;
553;SDS011;59;48.778;9.156;2023-02-12T16:27:56;2.60;;;2.17;;
553;SDS011;59;48.778;9.156;2023-02-12T16:30:30;3.80;;;2.90;;
553;SDS011;59;48.778;9.156;2023-02-12T16:33:03;5.03;;;3.80;;
553;SDS011;59;48.778;9.156;2023-02-12T16:35:33;4.50;;;3.40;;
553;SDS011;59;48.778;9.156;2023-02-12T16:38:21;4.80;;;3.50;;
553;SDS011;59;48.778;9.156;2023-02-12T16:43:47;4.40;;;3.17;;
553;SDS011;59;48.778;9.156;2023-02-12T16:46:15;5.43;;;3.40;;
553;SDS011;59;48.778;9.156;2023-02-12T16:48:44;8.23;;;4.97;;
553;SDS011;59;48.778;9.156;2023-02-12T16:53:53;6.67;;;4.70;;
553;SDS011;59;48.778;9.156;2023-02-12T16:56:21;6.70;;;4.77;;
553;SDS011;59;48.778;9.156;2023-02-12T16:58:51;10.63;;;6.57;;
553;SDS011;59;48.778;9.156;2023-02-12T17:01:22;9.23;;;5.80;;
553;SDS011;59;48.778;9.156;2023-02-12T17:03:53;9.33;;;6.17;;
553;SDS011;59;48.778;9.156;2023-02-12T17:06:29;10.30;;;5.90;;
553;SDS011;59;48.778;9.156;2023-02-12T17:08:55;9.17;;;5.80;;
553;SDS011;59;48.778;9.156;2023-02-12T17:11:21;7.40;;;5.27;;
553;SDS011;59;48.778;9.156;2023-02-12T17:13:48;7.53;;;4.80;;
553;SDS011;59;48.778;9.156;2023-02-12T17:16:15;9.73;;;5.70;;
553;SDS011;59;48.778;9.156;2023-02-12T17:18:41;8.07;;;5.47;;
553;SDS011;59;48.778;9.156;2023-02-12T17:21:09;10.23;;;5.83;;
553;SDS011;59;48.778;9.156;2023-02-12T17:23:39;10.27;;;6.40;;
553;SDS011;59;48.778;9.156;2023-02-12T17:26:05;9.53;;;6.00;;
553;SDS011;59;48.778;9.156;2023-02-12T17:28:31;11.70;;;6.60;;
553;SDS011;59;48.778;9.156;2023-02-12T17:30:57;8.27;;;6.00;;
553;SDS011;59;48.778;9.156;2023-02-12T17:33:26;9.80;;;6.03;;
553;SDS011;59;48.778;9.156;2023-02-12T17:35:52;10.03;;;7.00;;
553;SDS011;59;48.778;9.156;2023-02-12T17:38:18;11.50;;;6.93;;
553;SDS011;59;48.778;9.156;2023-02-12T17:40:43;9.10;;;5.70;;
553;SDS011;59;48.778;9.156;2023-02-12T17:43:09;10.20;;;6.47;;
553;SDS011;59;48.778;9.156;2023-02-12T17:45:38;10.33;;;6.80;;
553;SDS011;59;48.778;9.156;2023-02-12T17:48:06;9.40;;;6.10;;
553;SDS011;59;48.778;9.156;2023-02-12T17:50:33;9.83;;;6.23;;
553;SDS011;59;48.778;9.156;2023-02-12T17:52:58;11.03;;;6.97;;
553;SDS011;59;48.778;9.156;2023-02-12T17:55:24;11.40;;;6.70;;
553;SDS011;59;48.778;9.156;2023-02-12T17:57:50;10.50;;;6.20;;
553;SDS011;59;48.778;9.156;2023-02-12T18:00:17;10.97;;;6.17;;
553;SDS011;59;48.778;9.156;2023-02-12T18:02:43;10.90;;;7.00;;
553;SDS011;59;48.778;9.156;2023-02-12T18:05:09;8.80;;;5.90;;
553;SDS011;59;48.778;9.156;2023-02-12T18:07:34;8.90;;;5.87;;
553;SDS011;59;48.778;9.156;2023-02-12T18:10:00;9.93;;;6.00;;
553;SDS011;59;48.778;9.156;2023-02-12T18:12:26;8.23;;;5.47;;
553;SDS011;59;48.778;9.156;2023-02-12T18:14:58;8.47;;;5.73;;
553;SDS011;59;48.778;9.156;2023-02-12T18:17:25;8.10;;;5.50;;
553;SDS011;59;48.778;9.156;2023-02-12T18:19:51;9.77;;;6.50;;
553;SDS011;59;48.778;9.156;2023-02-12T18:22:17;9.47;;;6.80;;
553;SDS011;59;48.778;9.156;2023-02-12T18:24:43;9.30;;;6.70;;
553;SDS011;59;48.778;9.156;2023-02-12T18:27:09;9.73;;;6.90;;
553;SDS011;59;48.778;9.156;2023-02-12T18:29:36;11.23;;;6.43;;
553;SDS011;59;48.778;9.156;2023-02-12T18:32:02;12.23;;;7.73;;
553;SDS011;59;48.778;9.156;2023-02-12T18:34:27;10.20;;;6.83;;
553;SDS011;59;48.778;9.156;2023-02-12T18:36:53;11.40;;;7.90;;
553;SDS011;59;48.778;9.156;2023-02-12T18:39:19;14.73;;;9.00;;
553;SDS011;59;48.778;9.156;2023-02-12T18:41:44;12.70;;;8.27;;
553;SDS011;59;48.778;9.156;2023-02-12T18:44:11;13.07;;;8.60;;
553;SDS011;59;48.778;9.156;2023-02-12T18:46:38;13.40;;;8.70;;
553;SDS011;59;48.778;9.156;2023-02-12T18:49:04;14.00;;;8.90;;
553;SDS011;59;48.778;9.156;2023-02-12T18:51:30;14.17;;;8.83;;
553;SDS011;59;48.778;9.156;2023-02-12T18:54:01;13.07;;;8.40;;
553;SDS011;59;48.778;9.156;2023-02-12T18:56:29;11.50;;;6.90;;
553;SDS011;59;48.778;9.156;2023-02-12T18:58:57;11.10;;;7.30;;
553;SDS011;59;48.778;9.156;2023-02-12T19:01:24;10.80;;;6.60;;
553;SDS011;59;48.778;9.156;2023-02-12T19:03:54;13.87;;;8.50;;
553;SDS011;59;48.778;9.156;2023-02-12T19:06:23;13.00;;;8.70;;
553;SDS011;59;48.778;9.156;2023-02-12T19:08:52;11.10;;;7.40;;
553;SDS011;59;48.778;9.156;2023-02-12T19:11:22;10.97;;;7.33;;